createdAt,value
2023-01-17T00:00:48.949Z,74.21
2023-01-17T00:03:52.851Z,73.52
2023-01-17T00:06:58.509Z,75.28
2023-01-17T00:10:02.572Z,75.23
2023-01-17T00:13:07.016Z,75.00
2023-01-17T00:16:10.774Z,73.58
2023-01-17T00:19:14.841Z,74.50
2023-01-17T00:22:18.818Z,72.71
2023-01-17T00:25:22.922Z,74.47
2023-01-17T00:28:28.002Z,74.46
2023-01-17T00:31:32.134Z,73.56
2023-01-17T00:34:36.033Z,73.75
2023-01-17T00:37:40.172Z,72.74
2023-01-17T00:40:44.190Z,72.67
2023-01-17T00:43:48.350Z,72.36
2023-01-17T00:46:52.474Z,71.57
2023-01-17T00:49:56.316Z,71.91
2023-01-17T00:53:00.362Z,72.77
2023-01-17T00:56:04.481Z,71.69
2023-01-17T00:59:08.603Z,71.29
2023-01-17T01:02:12.554Z,72.51
2023-01-17T01:05:16.481Z,73.35
2023-01-17T01:08:20.405Z,72.83
2023-01-17T01:11:25.655Z,73.87
2023-01-17T01:14:29.829Z,73.72
2023-01-17T01:17:33.759Z,73.10
2023-01-17T01:20:37.877Z,72.17
2023-01-17T01:23:42.096Z,72.29
2023-01-17T01:26:47.606Z,72.73
2023-01-17T01:29:51.865Z,73.12
2023-01-17T01:32:55.996Z,72.88
2023-01-17T01:36:00.029Z,73.05
2023-01-17T01:39:04.080Z,73.14
2023-01-17T01:42:08.138Z,73.11
2023-01-17T01:45:12.253Z,72.77
2023-01-17T01:48:16.340Z,73.27
2023-01-17T01:51:20.093Z,73.14
2023-01-17T01:54:24.211Z,73.41
2023-01-17T01:57:28.143Z,72.88
2023-01-17T02:00:32.139Z,72.45
2023-01-17T02:03:36.267Z,73.19
2023-01-17T02:06:40.354Z,72.59
2023-01-17T02:09:44.415Z,71.72
2023-01-17T02:12:48.314Z,71.71
2023-01-17T02:15:52.346Z,72.02
2023-01-17T02:18:58.399Z,71.85
2023-01-17T02:22:02.423Z,72.28
2023-01-17T02:25:06.851Z,71.80
2023-01-17T02:28:10.777Z,72.34
2023-01-17T02:31:14.818Z,71.41
2023-01-17T02:34:18.662Z,71.83
2023-01-17T02:37:22.756Z,73.28
2023-01-17T02:40:26.811Z,73.27
2023-01-17T02:43:30.633Z,72.12
2023-01-17T02:46:34.581Z,71.79
2023-01-17T02:49:38.707Z,73.76
2023-01-17T02:52:43.003Z,73.91
2023-01-17T02:55:47.073Z,72.42
2023-01-17T02:58:51.934Z,72.88
2023-01-17T03:01:56.238Z,72.28
2023-01-17T03:05:01.537Z,74.54
2023-01-17T03:08:05.850Z,73.74
2023-01-17T03:11:09.975Z,74.47
2023-01-17T03:14:13.836Z,72.14
2023-01-17T03:17:17.773Z,71.47
2023-01-17T03:20:22.730Z,72.11
2023-01-17T03:23:27.094Z,72.05
2023-01-17T03:26:30.839Z,73.52
2023-01-17T03:29:34.757Z,72.41
2023-01-17T03:32:38.668Z,74.01
2023-01-17T03:35:42.959Z,72.29
2023-01-17T03:38:46.922Z,72.58
2023-01-17T03:41:50.929Z,74.18
2023-01-17T03:44:54.700Z,75.72
2023-01-17T03:47:58.708Z,76.15
2023-01-17T03:51:02.925Z,75.64
2023-01-17T03:54:06.980Z,74.58
2023-01-17T03:57:10.713Z,73.92
2023-01-17T04:00:14.775Z,73.52
2023-01-17T04:03:18.873Z,74.70
2023-01-17T04:06:22.976Z,73.12
2023-01-17T04:09:26.828Z,73.70
2023-01-17T04:12:30.739Z,73.72
2023-01-17T04:15:34.823Z,73.83
2023-01-17T04:18:38.891Z,74.69
2023-01-17T04:21:42.890Z,75.13
2023-01-17T04:24:46.837Z,75.32
2023-01-17T04:27:53.985Z,74.63
2023-01-17T04:30:58.168Z,73.35
2023-01-17T04:34:02.331Z,72.23
2023-01-17T04:37:06.361Z,70.74
2023-01-17T04:40:10.421Z,72.76
2023-01-17T04:43:14.284Z,72.08
2023-01-17T04:46:18.184Z,70.65
2023-01-17T04:49:22.316Z,71.96
2023-01-17T04:52:26.335Z,72.11
2023-01-17T04:55:30.201Z,70.82
2023-01-17T04:58:34.129Z,73.11
2023-01-17T05:01:38.544Z,73.32
2023-01-17T05:04:42.589Z,73.16
2023-01-17T05:07:46.586Z,73.20
2023-01-17T05:10:50.500Z,73.90
2023-01-17T05:13:54.280Z,75.45
2023-01-17T05:16:58.308Z,75.93
2023-01-17T05:20:02.315Z,75.03
2023-01-17T05:23:06.368Z,73.98
2023-01-17T05:26:10.342Z,71.84
2023-01-17T05:29:14.491Z,70.60
2023-01-17T05:32:18.672Z,71.41
2023-01-17T05:35:22.597Z,73.11
2023-01-17T05:38:26.415Z,72.96
2023-01-17T05:41:30.789Z,71.98
2023-01-17T05:44:35.086Z,71.48
2023-01-17T05:47:38.976Z,73.60
2023-01-17T05:50:42.774Z,73.23
2023-01-17T05:53:46.798Z,72.44
2023-01-17T05:56:50.847Z,72.83
2023-01-17T05:59:55.052Z,71.87
2023-01-17T06:02:59.251Z,71.76
2023-01-17T06:06:03.375Z,71.78
2023-01-17T06:09:07.002Z,70.87
2023-01-17T06:12:11.217Z,71.71
2023-01-17T06:15:14.945Z,71.67
2023-01-17T06:18:20.671Z,72.07
2023-01-17T06:21:26.261Z,70.95
2023-01-17T06:24:30.342Z,71.73
2023-01-17T06:27:34.687Z,69.45
2023-01-17T06:30:38.773Z,67.34
2023-01-17T06:33:42.606Z,69.02
2023-01-17T06:36:46.535Z,71.56
2023-01-17T06:39:50.698Z,72.77
2023-01-17T06:42:54.649Z,73.05
2023-01-17T06:45:58.598Z,70.83
2023-01-17T06:49:02.332Z,72.58
2023-01-17T06:52:06.381Z,71.45
2023-01-17T06:55:10.302Z,71.13
2023-01-17T06:58:14.463Z,71.45
2023-01-17T07:01:18.319Z,72.36
2023-01-17T07:04:22.459Z,69.44
2023-01-17T07:07:26.396Z,70.56
2023-01-17T07:10:31.769Z,70.54
2023-01-17T07:13:36.426Z,70.37
2023-01-17T07:16:40.509Z,71.63
2023-01-17T07:19:44.448Z,70.92
2023-01-17T07:22:48.474Z,70.28
2023-01-17T07:25:52.739Z,71.46
2023-01-17T07:28:57.168Z,72.25
2023-01-17T07:32:00.601Z,71.23
2023-01-17T07:35:05.105Z,72.45
2023-01-17T07:38:09.027Z,69.17
2023-01-17T07:41:13.358Z,67.15
2023-01-17T07:44:17.496Z,65.40
2023-01-17T07:47:21.360Z,68.68
2023-01-17T07:50:25.036Z,69.35
2023-01-17T07:53:29.010Z,68.65
2023-01-17T07:56:32.879Z,69.35
2023-01-17T07:59:36.749Z,68.30
2023-01-17T08:02:40.661Z,67.71
2023-01-17T08:05:44.534Z,68.13
2023-01-17T08:08:48.302Z,67.72
2023-01-17T08:11:53.574Z,66.88
2023-01-17T08:14:57.617Z,67.39
2023-01-17T08:18:01.476Z,67.90
2023-01-17T08:21:08.001Z,67.80
2023-01-17T08:24:14.509Z,67.69
2023-01-17T08:27:18.669Z,67.87
2023-01-17T08:30:22.596Z,69.54
2023-01-17T08:33:26.185Z,69.77
2023-01-17T08:36:30.210Z,70.41
2023-01-17T08:39:34.293Z,71.03
2023-01-17T08:42:38.187Z,71.20
2023-01-17T08:45:41.883Z,71.76
2023-01-17T08:48:45.907Z,70.73
2023-01-17T08:51:49.918Z,71.66
2023-01-17T08:54:53.942Z,71.73
2023-01-17T08:57:57.820Z,69.10
2023-01-17T09:01:01.925Z,70.64
2023-01-17T09:04:06.066Z,71.01
2023-01-17T09:07:09.888Z,69.33
2023-01-17T09:10:13.874Z,69.02
2023-01-17T09:13:17.675Z,70.83
2023-01-17T09:16:21.646Z,70.80
2023-01-17T09:19:25.608Z,72.14
2023-01-17T09:22:29.648Z,72.13
2023-01-17T09:25:33.405Z,70.91
2023-01-17T09:28:38.628Z,70.89
2023-01-17T09:31:42.846Z,71.77
2023-01-17T09:38:15.321Z,72.43
2023-01-17T09:41:19.398Z,70.99
2023-01-17T09:44:23.707Z,71.39
2023-01-17T09:47:27.635Z,70.04
2023-01-17T09:50:31.538Z,69.05
2023-01-17T09:53:37.801Z,67.77
2023-01-17T09:56:41.787Z,68.61
2023-01-17T09:59:46.025Z,71.20
2023-01-17T10:02:49.926Z,67.67
2023-01-17T10:05:55.474Z,70.22
2023-01-17T10:08:59.314Z,67.42
2023-01-17T10:12:04.717Z,68.45
2023-01-17T10:15:09.364Z,67.46
2023-01-17T10:18:28.898Z,68.77
2023-01-17T10:21:34.925Z,67.48
2023-01-17T10:30:05.124Z,69.66
2023-01-17T10:33:09.328Z,71.04
2023-01-17T10:48:24.467Z,69.94
2023-01-17T10:51:28.452Z,70.71
2023-01-17T10:54:32.379Z,71.21
2023-01-17T10:57:36.475Z,70.19
2023-01-17T11:00:40.473Z,70.39
2023-01-17T11:03:44.578Z,72.26
2023-01-17T11:06:57.833Z,72.34
2023-01-17T11:10:03.546Z,71.85
2023-01-17T11:13:07.539Z,72.24
2023-01-17T11:16:11.487Z,70.66
2023-01-17T11:19:15.706Z,70.77
2023-01-17T11:22:20.062Z,70.75
2023-01-17T11:25:24.059Z,72.69
2023-01-17T11:28:27.963Z,71.86
2023-01-17T11:31:32.394Z,71.89
2023-01-17T11:34:36.516Z,72.97
2023-01-17T11:37:40.636Z,72.87
2023-01-17T11:41:08.038Z,74.66
2023-01-17T11:44:17.889Z,73.54
2023-01-17T11:47:28.637Z,75.35
2023-01-17T11:50:40.680Z,73.30
2023-01-17T11:53:47.574Z,74.68
2023-01-17T11:57:06.038Z,73.12
2023-01-17T12:00:12.308Z,75.72
2023-01-17T12:03:30.296Z,75.37
2023-01-17T12:06:47.832Z,73.81
2023-01-17T12:10:04.150Z,74.54
2023-01-17T12:13:13.773Z,73.93
2023-01-17T12:17:56.188Z,75.84
2023-01-17T12:23:28.777Z,76.16
2023-01-17T12:33:39.336Z,75.40
2023-01-17T12:36:49.791Z,74.30
2023-01-17T12:39:55.404Z,74.07
2023-01-17T12:43:16.922Z,73.71
2023-01-17T12:46:26.846Z,77.72
2023-01-17T12:49:33.566Z,77.32
2023-01-17T12:52:40.085Z,77.58
2023-01-17T12:55:46.904Z,78.37
2023-01-17T13:02:25.762Z,75.14
2023-01-17T13:05:32.315Z,74.13
2023-01-17T13:08:36.636Z,73.87
2023-01-17T13:24:11.550Z,74.87
2023-01-17T13:27:21.214Z,74.58
2023-01-17T13:30:25.289Z,73.29
2023-01-17T13:33:33.138Z,73.29
2023-01-17T13:36:37.380Z,75.06
2023-01-17T13:39:42.138Z,73.92
2023-01-17T13:42:46.008Z,75.31
2023-01-17T13:45:49.812Z,75.22
2023-01-17T13:48:54.094Z,73.47
2023-01-17T13:51:58.542Z,75.41
2023-01-17T13:55:02.584Z,75.26
2023-01-17T13:58:07.061Z,73.88
2023-01-17T14:01:11.078Z,73.82
2023-01-17T14:04:17.069Z,73.41
2023-01-17T14:07:21.359Z,73.73
2023-01-17T14:13:47.957Z,72.58
2023-01-17T14:16:51.929Z,71.74
2023-01-17T14:19:58.983Z,71.36
2023-01-17T14:26:11.252Z,72.15
2023-01-17T14:29:15.530Z,72.40
2023-01-17T14:32:23.905Z,72.11
2023-01-17T14:37:27.697Z,71.77
2023-01-17T14:41:06.392Z,72.56
2023-01-17T14:42:58.028Z,73.14
2023-01-17T14:46:02.358Z,71.90
2023-01-17T14:49:06.359Z,71.30
2023-01-17T14:52:10.384Z,71.61
2023-01-17T14:55:14.066Z,71.47
2023-01-17T14:58:19.081Z,73.18
2023-01-17T15:01:23.579Z,73.38
2023-01-17T15:04:28.140Z,73.00
2023-01-17T15:07:32.264Z,72.48
2023-01-17T15:10:36.167Z,74.02
2023-01-17T15:13:44.617Z,74.17
2023-01-17T15:16:53.365Z,74.38
2023-01-17T15:19:59.876Z,74.49
2023-01-17T15:23:05.176Z,75.03
2023-01-17T15:26:09.280Z,74.35
2023-01-17T15:29:13.643Z,73.97
2023-01-17T15:32:18.794Z,74.59
2023-01-17T15:35:22.877Z,73.61
2023-01-17T15:38:31.667Z,73.70
2023-01-17T15:41:41.358Z,72.25
2023-01-17T15:44:48.952Z,73.82
2023-01-17T15:47:53.750Z,73.02
2023-01-17T15:50:58.155Z,73.45
2023-01-17T15:54:04.579Z,74.00
2023-01-17T15:57:09.187Z,74.92
2023-01-17T16:03:00.407Z,73.15
2023-01-17T16:06:09.861Z,72.75
2023-01-17T16:41:40.407Z,74.81
2023-01-17T17:22:43.087Z,74.56
2023-01-17T17:29:18.745Z,74.93
2023-01-17T17:32:23.765Z,74.91
2023-01-17T17:35:34.963Z,74.33
2023-01-17T17:38:39.138Z,73.29
2023-01-17T17:41:55.978Z,73.34
2023-01-17T17:45:00.809Z,73.22
2023-01-17T17:48:04.553Z,73.35
2023-01-17T17:51:10.043Z,74.36
2023-01-17T17:54:16.535Z,74.92
2023-01-17T17:57:22.850Z,75.16
2023-01-17T18:00:41.335Z,74.10
2023-01-17T18:03:46.607Z,73.32
2023-01-17T18:06:50.542Z,73.44
2023-01-17T18:09:54.749Z,72.79
2023-01-17T18:13:04.029Z,72.71
2023-01-17T18:16:08.391Z,72.51
2023-01-17T18:19:12.495Z,73.36
2023-01-17T18:22:16.626Z,72.18
2023-01-17T18:25:20.585Z,71.25
2023-01-17T18:28:24.476Z,70.88
2023-01-17T18:31:28.984Z,69.99
2023-01-17T18:34:32.962Z,70.63
2023-01-17T18:37:37.744Z,71.35
2023-01-17T18:40:44.979Z,71.49
2023-01-17T18:43:51.765Z,69.54
2023-01-17T18:47:22.701Z,66.28
2023-01-17T18:57:15.666Z,65.32
2023-01-17T19:00:19.947Z,65.79
2023-01-17T19:03:23.918Z,65.05
2023-01-17T19:06:27.778Z,67.25
2023-01-17T19:09:34.182Z,64.31
2023-01-17T19:12:38.291Z,64.95
2023-01-17T19:15:45.410Z,63.02
2023-01-17T19:18:49.515Z,65.26
2023-01-17T19:21:53.390Z,66.28
2023-01-17T19:25:00.480Z,66.61
2023-01-17T19:28:04.656Z,67.76
2023-01-17T19:31:09.981Z,67.22
2023-01-17T19:34:15.588Z,66.39
2023-01-17T19:37:19.405Z,69.51
2023-01-17T19:40:23.390Z,69.80
2023-01-17T19:43:27.279Z,71.34
2023-01-17T19:46:31.395Z,68.71
2023-01-17T19:49:39.690Z,67.49
2023-01-17T19:52:45.121Z,66.05
2023-01-17T19:55:51.455Z,67.36
2023-01-17T19:58:55.565Z,67.47
2023-01-17T20:09:03.058Z,70.27
2023-01-17T20:12:08.628Z,69.39
2023-01-17T20:15:13.549Z,67.10
2023-01-17T20:18:24.127Z,66.29
2023-01-17T20:21:29.277Z,66.11
2023-01-17T20:24:43.433Z,65.76
2023-01-17T20:27:47.497Z,64.97
2023-01-17T20:30:51.346Z,68.46
2023-01-17T20:33:55.320Z,66.12
2023-01-17T20:37:05.461Z,68.79
2023-01-17T20:40:09.587Z,66.60
2023-01-17T20:43:20.099Z,67.20
2023-01-17T20:46:24.103Z,66.75
2023-01-17T20:49:28.523Z,69.31
2023-01-17T20:52:34.579Z,68.67
2023-01-17T20:55:38.762Z,68.99
2023-01-17T20:58:42.783Z,69.24
2023-01-17T21:01:50.934Z,69.12
2023-01-17T21:32:21.287Z,70.43
2023-01-17T21:35:45.510Z,69.52
2023-01-17T21:38:55.439Z,69.63
2023-01-17T21:42:00.041Z,67.97
2023-01-17T21:48:29.895Z,68.02
2023-01-17T21:51:39.808Z,66.78
2023-01-17T21:54:43.857Z,68.24
2023-01-17T21:57:51.972Z,68.05
2023-01-17T22:00:59.538Z,68.20
2023-01-17T22:04:03.727Z,68.42
2023-01-17T22:07:15.879Z,67.70
2023-01-17T22:10:23.144Z,66.67
2023-01-17T22:13:27.214Z,65.02
2023-01-17T22:16:34.589Z,65.53
2023-01-17T22:19:38.469Z,64.77
2023-01-17T22:22:48.158Z,65.18
2023-01-17T22:25:52.249Z,65.63
2023-01-17T22:29:00.751Z,65.21
2023-01-17T22:32:06.402Z,65.04
2023-01-17T22:39:20.031Z,62.95
2023-01-17T22:42:00.780Z,64.41
2023-01-17T22:45:05.952Z,64.51
2023-01-17T22:48:43.317Z,64.12
2023-01-17T22:51:34.785Z,65.38
2023-01-17T22:54:40.666Z,63.10
2023-01-17T22:57:53.607Z,64.96
2023-01-17T23:01:08.049Z,65.04
2023-01-17T23:10:54.208Z,66.96
2023-01-17T23:13:59.407Z,65.59
2023-01-17T23:56:02.247Z,70.05
2023-01-17T23:59:29.375Z,70.33
